sensor_id;sensor_type;location;lat;lon;timestamp;pressure;altitude;pressure_sealevel;temperature
25985;BMP280;66753;53.848;10.658;2023-05-09T00:03:56;102018.59;;;12.93
25985;BMP280;66753;53.848;10.658;2023-05-09T00:18:58;102002.72;;;12.76
25985;BMP280;66753;53.848;10.658;2023-05-09T00:33:59;102004.13;;;12.56
25985;BMP280;66753;53.848;10.658;2023-05-09T00:48:59;101991.97;;;12.38
25985;BMP280;66753;53.848;10.658;2023-05-09T01:04:00;101964.59;;;12.12
25985;BMP280;66753;53.848;10.658;2023-05-09T01:34:21;101954.59;;;11.75
25985;BMP280;66753;53.848;10.658;2023-05-09T01:49:23;101925.81;;;11.60
25985;BMP280;66753;53.848;10.658;2023-05-09T02:04:25;101916.41;;;11.46
25985;BMP280;66753;53.848;10.658;2023-05-09T02:19:27;101918.41;;;11.32
25985;BMP280;66753;53.848;10.658;2023-05-09T02:34:27;101921.63;;;11.20
25985;BMP280;66753;53.848;10.658;2023-05-09T02:49:28;101920.66;;;11.08
25985;BMP280;66753;53.848;10.658;2023-05-09T03:04:28;101901.41;;;10.94
25985;BMP280;66753;53.848;10.658;2023-05-09T03:19:29;101894.59;;;10.79
25985;BMP280;66753;53.848;10.658;2023-05-09T03:34:30;101884.28;;;10.69
25985;BMP280;66753;53.848;10.658;2023-05-09T03:49:30;101887.81;;;10.65
25985;BMP280;66753;53.848;10.658;2023-05-09T04:04:31;101888.31;;;10.67
25985;BMP280;66753;53.848;10.658;2023-05-09T04:19:31;101876.66;;;10.76
25985;BMP280;66753;53.848;10.658;2023-05-09T04:34:31;101859.56;;;10.91
25985;BMP280;66753;53.848;10.658;2023-05-09T04:49:32;101866.03;;;11.07
25985;BMP280;66753;53.848;10.658;2023-05-09T05:04:32;101873.88;;;11.29
25985;BMP280;66753;53.848;10.658;2023-05-09T05:19:33;101880.19;;;11.67
25985;BMP280;66753;53.848;10.658;2023-05-09T05:34:34;101865.44;;;12.29
25985;BMP280;66753;53.848;10.658;2023-05-09T05:49:34;101872.81;;;12.98
25985;BMP280;66753;53.848;10.658;2023-05-09T06:04:35;101863.66;;;13.78
25985;BMP280;66753;53.848;10.658;2023-05-09T06:19:35;101870.28;;;14.73
25985;BMP280;66753;53.848;10.658;2023-05-09T06:34:36;101856.50;;;15.62
25985;BMP280;66753;53.848;10.658;2023-05-09T06:49:36;101836.19;;;16.35
25985;BMP280;66753;53.848;10.658;2023-05-09T07:04:37;101817.69;;;17.18
25985;BMP280;66753;53.848;10.658;2023-05-09T07:19:37;101816.41;;;17.95
25985;BMP280;66753;53.848;10.658;2023-05-09T07:34:38;101822.81;;;18.68
25985;BMP280;66753;53.848;10.658;2023-05-09T07:49:38;101813.91;;;19.27
25985;BMP280;66753;53.848;10.658;2023-05-09T08:04:39;101804.09;;;19.91
25985;BMP280;66753;53.848;10.658;2023-05-09T08:19:40;101796.78;;;20.63
25985;BMP280;66753;53.848;10.658;2023-05-09T08:34:40;101768.78;;;21.13
25985;BMP280;66753;53.848;10.658;2023-05-09T08:49:41;101756.03;;;21.70
25985;BMP280;66753;53.848;10.658;2023-05-09T09:04:42;101738.91;;;22.18
25985;BMP280;66753;53.848;10.658;2023-05-09T09:19:48;101710.88;;;22.63
25985;BMP280;66753;53.848;10.658;2023-05-09T09:34:49;101711.16;;;23.23
25985;BMP280;66753;53.848;10.658;2023-05-09T09:49:49;101696.22;;;23.45
25985;BMP280;66753;53.848;10.658;2023-05-09T10:04:50;101681.91;;;23.78
25985;BMP280;66753;53.848;10.658;2023-05-09T10:19:51;101670.06;;;24.25
25985;BMP280;66753;53.848;10.658;2023-05-09T10:34:53;101657.03;;;24.66
25985;BMP280;66753;53.848;10.658;2023-05-09T10:49:57;101646.63;;;25.03
25985;BMP280;66753;53.848;10.658;2023-05-09T11:05:13;101622.91;;;25.65
25985;BMP280;66753;53.848;10.658;2023-05-09T11:20:13;101594.91;;;26.00
25985;BMP280;66753;53.848;10.658;2023-05-09T11:35:14;101583.47;;;26.37
25985;BMP280;66753;53.848;10.658;2023-05-09T11:50:17;101525.72;;;26.74
25985;BMP280;66753;53.848;10.658;2023-05-09T12:05:20;101520.78;;;27.10
25985;BMP280;66753;53.848;10.658;2023-05-09T12:20:20;101482.00;;;27.31
25985;BMP280;66753;53.848;10.658;2023-05-09T12:35:21;101483.16;;;27.55
25985;BMP280;66753;53.848;10.658;2023-05-09T12:50:30;101448.25;;;27.75
25985;BMP280;66753;53.848;10.658;2023-05-09T13:05:31;101450.34;;;27.92
25985;BMP280;66753;53.848;10.658;2023-05-09T13:20:31;101397.81;;;27.58
25985;BMP280;66753;53.848;10.658;2023-05-09T13:35:32;101404.31;;;27.39
25985;BMP280;66753;53.848;10.658;2023-05-09T13:50:33;101382.19;;;27.71
25985;BMP280;66753;53.848;10.658;2023-05-09T14:05:33;101381.69;;;27.85
25985;BMP280;66753;53.848;10.658;2023-05-09T14:20:33;101377.22;;;28.00
25985;BMP280;66753;53.848;10.658;2023-05-09T14:35:36;101351.16;;;27.90
25985;BMP280;66753;53.848;10.658;2023-05-09T14:50:36;101330.31;;;28.05
25985;BMP280;66753;53.848;10.658;2023-05-09T15:05:37;101304.22;;;27.73
25985;BMP280;66753;53.848;10.658;2023-05-09T15:20:38;101270.41;;;27.06
25985;BMP280;66753;53.848;10.658;2023-05-09T15:35:39;101238.91;;;26.84
25985;BMP280;66753;53.848;10.658;2023-05-09T15:50:41;101225.38;;;26.93
25985;BMP280;66753;53.848;10.658;2023-05-09T16:05:42;101200.09;;;27.05
25985;BMP280;66753;53.848;10.658;2023-05-09T16:20:43;101175.56;;;27.05
25985;BMP280;66753;53.848;10.658;2023-05-09T16:35:43;101162.53;;;27.21
25985;BMP280;66753;53.848;10.658;2023-05-09T16:50:44;101158.03;;;27.27
25985;BMP280;66753;53.848;10.658;2023-05-09T17:05:45;101167.81;;;27.68
25985;BMP280;66753;53.848;10.658;2023-05-09T17:20:46;101148.34;;;27.87
25985;BMP280;66753;53.848;10.658;2023-05-09T17:35:46;101140.56;;;28.88
25985;BMP280;66753;53.848;10.658;2023-05-09T17:50:49;101102.16;;;27.14
25985;BMP280;66753;53.848;10.658;2023-05-09T18:05:50;101056.09;;;24.81
25985;BMP280;66753;53.848;10.658;2023-05-09T18:20:50;101040.78;;;23.98
25985;BMP280;66753;53.848;10.658;2023-05-09T18:35:54;101029.16;;;22.49
25985;BMP280;66753;53.848;10.658;2023-05-09T18:50:54;101015.78;;;21.32
25985;BMP280;66753;53.848;10.658;2023-05-09T19:05:55;101007.19;;;20.26
25985;BMP280;66753;53.848;10.658;2023-05-09T19:20:58;100999.97;;;19.45
25985;BMP280;66753;53.848;10.658;2023-05-09T19:35:58;100985.53;;;18.83
25985;BMP280;66753;53.848;10.658;2023-05-09T19:50:59;100977.09;;;18.32
25985;BMP280;66753;53.848;10.658;2023-05-09T20:05:59;100973.97;;;17.95
25985;BMP280;66753;53.848;10.658;2023-05-09T20:21:03;100967.31;;;17.57
25985;BMP280;66753;53.848;10.658;2023-05-09T20:36:08;100950.69;;;17.27
25985;BMP280;66753;53.848;10.658;2023-05-09T20:51:10;100952.13;;;17.04
25985;BMP280;66753;53.848;10.658;2023-05-09T21:06:10;100932.44;;;16.79
25985;BMP280;66753;53.848;10.658;2023-05-09T21:21:11;100931.84;;;16.52
25985;BMP280;66753;53.848;10.658;2023-05-09T21:36:11;100927.06;;;16.28
25985;BMP280;66753;53.848;10.658;2023-05-09T21:51:12;100911.59;;;16.08
25985;BMP280;66753;53.848;10.658;2023-05-09T22:06:12;100898.41;;;15.89
25985;BMP280;66753;53.848;10.658;2023-05-09T22:21:13;100895.47;;;15.68
25985;BMP280;66753;53.848;10.658;2023-05-09T22:36:13;100891.09;;;15.53
25985;BMP280;66753;53.848;10.658;2023-05-09T22:51:13;100882.13;;;15.35
25985;BMP280;66753;53.848;10.658;2023-05-09T23:06:14;100884.19;;;15.19
25985;BMP280;66753;53.848;10.658;2023-05-09T23:21:14;100865.66;;;15.03
25985;BMP280;66753;53.848;10.658;2023-05-09T23:36:15;100847.19;;;14.91
25985;BMP280;66753;53.848;10.658;2023-05-09T23:51:15;100828.25;;;14.74
